Time;durP1;ratioP1;P1;durP2;ratioP2;P2;SDS_P1;SDS_P2;PMS_P1;PMS_P2;Temp;Humidity;BMP_temperature;BMP_pressure;BME280_temperature;BME280_humidity;BME280_pressure;Samples;Min_cycle;Max_cycle;Signal;HPM_P1;HPM_P2
2021/09/20 00:00:44;;;;;;;;;;;;;;;;;;10332679;28;19926;-74
2021/09/20 00:05:47;;;;;;;;;;;;;;;;;;10332210;28;19926;-75
2021/09/20 00:10:50;;;;;;;;;;;;;;;;;;10331244;28;19976;-76
2021/09/20 00:15:55;;;;;;;;;;;;;;;;;;10332064;28;19926;-75
2021/09/20 00:20:58;;;;;;;;;;;;;;;;;;10358491;28;19929;-74
2021/09/20 00:26:01;;;;;;;;;;;;;;;;;;10372778;28;19932;-76
2021/09/20 00:31:04;;;;;;;;;;;;;;;;;;10373195;28;20365;-74
2021/09/20 00:36:08;;;;;;;;;;;;;;;;;;10371024;28;19929;-75
2021/09/20 00:41:11;;;;;;;;;;;;;;;;;;10375858;28;19925;-76
2021/09/20 00:46:14;;;;;;;;;;;;;;;;;;10379346;28;19972;-76
2021/09/20 00:51:17;;;;;;;;;;;;;;;;;;10379430;28;20013;-76
2021/09/20 00:56:20;;;;;;;;;;;;;;;;;;10377886;28;19992;-75
2021/09/20 01:01:23;;;;;;;;;;;;;;;;;;10378645;28;19929;-74
2021/09/20 01:06:26;;;;;;;;;;;;;;;;;;10378466;28;19925;-76
2021/09/20 01:11:28;;;;;;;;;;;;;;;;;;10377503;28;19933;-75
2021/09/20 01:16:31;;;;;;;;;;;;;;;;;;10378477;28;19937;-75
2021/09/20 01:21:34;;;;;;;;;;;;;;;;;;10378557;28;20261;-75
2021/09/20 01:26:36;;;;;;;;;;;;;;;;;;10378136;28;20372;-75
2021/09/20 01:31:40;;;;;;;;;;;;;;;;;;10377002;28;19932;-75
2021/09/20 01:36:42;;;;;;;;;;;;;;;;;;10377069;28;20355;-76
2021/09/20 01:41:45;;;;;;;;;;;;;;;;;;10376133;28;19926;-76
2021/09/20 01:46:47;;;;;;;;;;;;;;;;;;10377760;28;19948;-74
2021/09/20 01:51:50;;;;;;;;;;;;;;;;;;10374535;28;19926;-74
2021/09/20 01:56:53;;;;;;;;;;;;;;;;;;10377229;28;19930;-75
2021/09/20 02:01:58;;;;;;;;;;;;;;;;;;10376575;28;20052;-75
2021/09/20 02:07:01;;;;;;;;;;;;;;;;;;10375089;28;19932;-75
2021/09/20 02:12:03;;;;;;;;;;;;;;;;;;10375790;28;20380;-74
2021/09/20 02:17:06;;;;;;;;;;;;;;;;;;10375472;28;20403;-74
2021/09/20 02:22:09;;;;;;;;;;;;;;;;;;10375887;28;20278;-76
2021/09/20 02:27:12;;;;;;;;;;;;;;;;;;10374015;28;19930;-75
2021/09/20 02:32:15;;;;;;;;;;;;;;;;;;10374306;28;19932;-75
2021/09/20 02:37:17;;;;;;;;;;;;;;;;;;10373636;28;19925;-75
2021/09/20 02:42:21;;;;;;;;;;;;;;;;;;10373468;28;19926;-75
2021/09/20 02:47:23;;;;;;;;;;;;;;;;;;10375376;28;19999;-74
2021/09/20 02:52:27;;;;;;;;;;;;;;;;;;10375109;28;19944;-75
2021/09/20 02:57:29;;;;;;;;;;;;;;;;;;10374534;28;19930;-74
2021/09/20 03:02:31;;;;;;;;;;;;;;;;;;10374281;28;19933;-74
2021/09/20 03:07:37;;;;;;;;;;;;;;;;;;10373474;28;19969;-75
2021/09/20 03:12:40;;;;;;;;;;;;;;;;;;10374062;28;20323;-74
2021/09/20 03:17:43;;;;;;;;;;;;;;;;;;10374041;28;20027;-76
2021/09/20 03:22:46;;;;;;;;;;;;;;;;;;10373889;28;19972;-75
2021/09/20 03:27:49;;;;;;;;;;;;;;;;;;10373319;28;19975;-75
2021/09/20 03:32:52;;;;;;;;;;;;;;;;;;10373283;28;19925;-74
2021/09/20 03:37:56;;;;;;;;;;;;;;;;;;10372879;28;19925;-75
2021/09/20 03:43:00;;;;;;;;;;;;;;;;;;10373444;28;19925;-76
2021/09/20 03:48:02;;;;;;;;;;;;;;;;;;10373323;28;20016;-76
2021/09/20 03:53:05;;;;;;;;;;;;;;;;;;10373575;28;19925;-74
2021/09/20 03:58:08;;;;;;;;;;;;;;;;;;10372885;28;19925;-76
2021/09/20 04:03:11;;;;;;;;;;;;;;;;;;10372756;28;19932;-76
2021/09/20 04:08:16;;;;;;;;;;;;;;;;;;10373566;28;19932;-75
2021/09/20 04:13:18;;;;;;;;;;;;;;;;;;10371211;28;20440;-76
2021/09/20 04:18:20;;;;;;;;;;;;;;;;;;10378907;28;19926;-76
2021/09/20 04:23:23;;;;;;;;;;;;;;;;;;10380270;28;19929;-75
2021/09/20 04:28:26;;;;;;;;;;;;;;;;;;10380794;28;19973;-74
2021/09/20 04:33:28;;;;;;;;;;;;;;;;;;10378596;28;20385;-75
2021/09/20 04:38:31;;;;;;;;;;;;;;;;;;10379411;28;19996;-73
2021/09/20 04:43:35;;;;;;;;;;;;;;;;;;10379459;28;19976;-74
2021/09/20 04:48:37;;;;;;;;;;;;;;;;;;10379198;28;20261;-75
2021/09/20 04:53:40;;;;;;;;;;;;;;;;;;10377901;28;19976;-74
2021/09/20 04:58:42;;;;;;;;;;;;;;;;;;10378953;28;19926;-76
2021/09/20 05:03:45;;;;;;;;;;;;;;;;;;10378736;28;19926;-74
2021/09/20 05:08:48;;;;;;;;;;;;;;;;;;10378386;28;19961;-76
2021/09/20 05:13:51;;;;;;;;;;;;;;;;;;10378035;28;20388;-75
2021/09/20 05:18:54;;;;;;;;;;;;;;;;;;10371959;28;19929;-75
2021/09/20 05:23:57;;;;;;;;;;;;;;;;;;10377445;28;20385;-76
2021/09/20 05:29:00;;;;;;;;;;;;;;;;;;10375756;28;20056;-75
2021/09/20 05:34:02;;;;;;;;;;;;;;;;;;10360587;28;19925;-75
2021/09/20 05:39:05;;;;;;;;;;;;;;;;;;10376902;28;20008;-75
2021/09/20 05:44:07;;;;;;;;;;;;;;;;;;10374721;28;19940;-75
2021/09/20 05:49:10;;;;;;;;;;;;;;;;;;10374604;28;19925;-75
2021/09/20 05:54:14;;;;;;;;;;;;;;;;;;10373630;28;20397;-73
2021/09/20 05:59:16;;;;;;;;;;;;;;;;;;10375888;28;19925;-75
2021/09/20 06:04:19;;;;;;;;;;;;;;;;;;10374395;28;19925;-75
2021/09/20 06:09:21;;;;;;;;;;;;;;;;;;10362053;28;19925;-74
2021/09/20 06:14:24;;;;;;;;;;;;;;;;;;10363689;28;19952;-75
2021/09/20 06:19:26;;;;;;;;;;;;;;;;;;10374289;28;20041;-76
2021/09/20 06:24:28;;;;;;;;;;;;;;;;;;10375622;28;19976;-75
2021/09/20 06:29:31;;;;;;;;;;;;;;;;;;10349539;28;19933;-76
2021/09/20 06:34:33;;;;;;;;;;;;;;;;;;10334155;28;19929;-76
2021/09/20 06:39:36;;;;;;;;;;;;;;;;;;10345802;28;19925;-75
2021/09/20 06:44:39;;;;;;;;;;;;;;;;;;10354204;28;19929;-77
2021/09/20 06:49:41;;;;;;;;;;;;;;;;;;10350615;28;19929;-74
2021/09/20 06:54:44;;;;;;;;;;;;;;;;;;10346002;28;19937;-75
2021/09/20 06:59:46;;;;;;;;;;;;;;;;;;10355538;28;19929;-75
2021/09/20 07:04:49;;;;;;;;;;;;;;;;;;10372702;28;19925;-78
2021/09/20 07:09:52;;;;;;;;;;;;;;;;;;10362180;28;19929;-76
2021/09/20 07:14:56;;;;;;;;;;;;;;;;;;10365829;28;19925;-73
2021/09/20 07:19:58;;;;;;;;;;;;;;;;;;10349126;28;19925;-73
2021/09/20 07:25:00;;;;;;;;;;;;;;;;;;10350103;28;19933;-79
2021/09/20 07:30:03;;;;;;;;;;;;;;;;;;10342853;28;20029;-76
2021/09/20 07:35:05;;;;;;;;;;;;;;;;;;10332408;28;19926;-73
2021/09/20 07:40:08;;;;;;;;;;;;;;;;;;10332469;28;20436;-79
2021/09/20 07:45:11;;;;;;;;;;;;;;;;;;10344102;28;20377;-74
2021/09/20 07:50:16;;;;;;;;;;;;;;;;;;10334968;28;20270;-73
2021/09/20 07:55:18;;;;;;;;;;;;;;;;;;10340577;28;19926;-76
2021/09/20 08:00:23;;;;;;;;;;;;;;;;;;10360774;28;19926;-78
2021/09/20 08:05:25;;;;;;;;;;;;;;;;;;10376773;28;20411;-73
2021/09/20 08:10:29;;;;;;;;;;;;;;;;;;10371966;28;19988;-78
2021/09/20 08:15:31;;;;;;;;;;;;;;;;;;10372585;28;20012;-78
2021/09/20 08:20:34;;;;;;;;;;;;;;;;;;10362448;28;19934;-73
2021/09/20 08:25:37;;;;;;;;;;;;;;;;;;10378918;28;19926;-74
2021/09/20 08:30:39;;;;;;;;;;;;;;;;;;10379978;28;20348;-76
2021/09/20 08:35:43;;;;;;;;;;;;;;;;;;10456730;22;19960;-76
2021/09/20 08:40:46;;;;;;;;;;;;;;;;;;10336451;28;19926;-76
2021/09/20 08:45:48;;;;;;;;;;;;;;;;;;10320896;28;19930;-78
2021/09/20 08:50:51;;;;;;;;;;;;;;;;;;10303520;28;19930;-73
2021/09/20 08:55:53;;;;;;;;;;;;;;;;;;10337472;28;19926;-74
2021/09/20 09:00:56;;;;;;;;;;;;;;;;;;10329617;28;19926;-73
2021/09/20 09:05:58;;;;;;;;;;;;;;;;;;10307310;28;20393;-78
2021/09/20 09:11:01;;;;;;;;;;;;;;;;;;10337363;28;19987;-73
2021/09/20 09:16:04;;;;;;;;;;;;;;;;;;10337472;28;19926;-73
2021/09/20 09:21:06;;;;;;;;;;;;;;;;;;10335912;28;19926;-73
2021/09/20 09:26:09;;;;;;;;;;;;;;;;;;10336788;28;19941;-78
2021/09/20 09:31:11;;;;;;;;;;;;;;;;;;10331461;28;19926;-77
2021/09/20 09:36:14;;;;;;;;;;;;;;;;;;10315452;28;20020;-74
2021/09/20 09:41:17;;;;;;;;;;;;;;;;;;10314154;28;19926;-78
2021/09/20 09:46:20;;;;;;;;;;;;;;;;;;10314359;28;20444;-76
2021/09/20 09:51:23;;;;;;;;;;;;;;;;;;10312211;28;19932;-76
2021/09/20 09:56:25;;;;;;;;;;;;;;;;;;10302485;28;20373;-74
2021/09/20 10:01:28;;;;;;;;;;;;;;;;;;10294202;28;20310;-76
2021/09/20 10:06:31;;;;;;;;;;;;;;;;;;10292489;28;19933;-75
2021/09/20 10:11:34;;;;;;;;;;;;;;;;;;10293590;28;19933;-73
2021/09/20 10:16:37;;;;;;;;;;;;;;;;;;10293216;28;19933;-79
2021/09/20 10:21:40;;;;;;;;;;;;;;;;;;10292709;28;20008;-79
2021/09/20 10:26:42;;;;;;;;;;;;;;;;;;10292272;28;20420;-74
2021/09/20 10:31:46;;;;;;;;;;;;;;;;;;10292449;28;19929;-71
2021/09/20 10:36:49;;;;;;;;;;;;;;;;;;10292026;28;20279;-73
2021/09/20 10:41:52;;;;;;;;;;;;;;;;;;10291615;28;20041;-73
2021/09/20 10:46:55;;;;;;;;;;;;;;;;;;10303507;28;19977;-78
2021/09/20 10:51:58;;;;;;;;;;;;;;;;;;10307245;28;19930;-78
2021/09/20 10:57:00;;;;;;;;;;;;;;;;;;10294056;28;20270;-72
2021/09/20 11:02:05;;;;;;;;;;;;;;;;;;10291959;28;20402;-75
2021/09/20 11:07:08;;;;;;;;;;;;;;;;;;10293019;28;19976;-73
2021/09/20 11:12:10;;;;;;;;;;;;;;;;;;10291021;28;19965;-79
2021/09/20 11:17:13;;;;;;;;;;;;;;;;;;10292624;28;19930;-75
2021/09/20 11:22:15;;;;;;;;;;;;;;;;;;10290904;28;19926;-73
2021/09/20 11:27:21;;;;;;;;;;;;;;;;;;10292045;28;19933;-73
2021/09/20 11:32:23;;;;;;;;;;;;;;;;;;10292170;28;20334;-73
2021/09/20 11:37:26;;;;;;;;;;;;;;;;;;10292016;28;19926;-75
2021/09/20 11:42:31;;;;;;;;;;;;;;;;;;10291417;28;20353;-72
2021/09/20 11:47:33;;;;;;;;;;;;;;;;;;10291465;28;19926;-77
2021/09/20 11:52:36;;;;;;;;;;;;;;;;;;10291867;28;20359;-72
2021/09/20 11:57:41;;;;;;;;;;;;;;;;;;10292079;28;20366;-72
2021/09/20 12:02:46;;;;;;;;;;;;;;;;;;10291693;28;20342;-77
2021/09/20 12:07:50;;;;;;;;;;;;;;;;;;10290821;28;19930;-75
2021/09/20 12:12:53;;;;;;;;;;;;;;;;;;10303342;28;19933;-76
2021/09/20 12:17:55;;;;;;;;;;;;;;;;;;10292529;28;19933;-73
2021/09/20 12:22:58;;;;;;;;;;;;;;;;;;10291321;28;19932;-73
2021/09/20 12:28:00;;;;;;;;;;;;;;;;;;10292085;28;19933;-72
2021/09/20 12:33:03;;;;;;;;;;;;;;;;;;10290875;28;19926;-75
2021/09/20 12:38:06;;;;;;;;;;;;;;;;;;10295645;28;20373;-72
2021/09/20 12:43:09;;;;;;;;;;;;;;;;;;10298256;28;19932;-73
2021/09/20 12:48:12;;;;;;;;;;;;;;;;;;10298116;28;19929;-72
2021/09/20 12:53:19;;;;;;;;;;;;;;;;;;10298893;28;20016;-78
2021/09/20 12:58:22;;;;;;;;;;;;;;;;;;10299095;28;20381;-75
2021/09/20 13:03:25;;;;;;;;;;;;;;;;;;10308038;28;20320;-71
2021/09/20 13:08:28;;;;;;;;;;;;;;;;;;10337386;28;19930;-77
2021/09/20 13:13:31;;;;;;;;;;;;;;;;;;10336761;28;19965;-72
2021/09/20 13:18:33;;;;;;;;;;;;;;;;;;10338084;28;19925;-72
2021/09/20 13:23:36;;;;;;;;;;;;;;;;;;10338371;28;19972;-73
2021/09/20 13:28:40;;;;;;;;;;;;;;;;;;10335298;28;21654;-74
2021/09/20 13:33:42;;;;;;;;;;;;;;;;;;10297228;28;19926;-77
2021/09/20 13:38:45;;;;;;;;;;;;;;;;;;10295764;28;19926;-70
2021/09/20 13:43:48;;;;;;;;;;;;;;;;;;10296964;28;19933;-78
2021/09/20 13:48:53;;;;;;;;;;;;;;;;;;10296990;28;19969;-71
2021/09/20 13:53:55;;;;;;;;;;;;;;;;;;10295324;28;19980;-72
2021/09/20 13:58:58;;;;;;;;;;;;;;;;;;10315991;28;19929;-72
2021/09/20 14:04:01;;;;;;;;;;;;;;;;;;10335681;28;19941;-76
2021/09/20 14:09:03;;;;;;;;;;;;;;;;;;10326205;28;19936;-73
2021/09/20 14:14:07;;;;;;;;;;;;;;;;;;10330377;28;19929;-78
2021/09/20 14:19:09;;;;;;;;;;;;;;;;;;10328792;28;19941;-76
2021/09/20 14:24:12;;;;;;;;;;;;;;;;;;10325395;28;19930;-72
2021/09/20 14:29:14;;;;;;;;;;;;;;;;;;10328002;28;19945;-72
2021/09/20 14:34:17;;;;;;;;;;;;;;;;;;10328419;28;19930;-70
2021/09/20 14:39:19;;;;;;;;;;;;;;;;;;10328624;28;20401;-73
2021/09/20 14:44:22;;;;;;;;;;;;;;;;;;10328379;28;19925;-71
2021/09/20 14:49:25;;;;;;;;;;;;;;;;;;10332687;28;19926;-74
2021/09/20 14:54:30;;;;;;;;;;;;;;;;;;10332869;28;20187;-71
2021/09/20 14:59:33;;;;;;;;;;;;;;;;;;10331768;28;19932;-78
2021/09/20 15:04:36;;;;;;;;;;;;;;;;;;10327628;28;20341;-73
2021/09/20 15:09:39;;;;;;;;;;;;;;;;;;10275584;28;20381;-70
2021/09/20 15:14:42;;;;;;;;;;;;;;;;;;10302859;28;19926;-77
2021/09/20 15:19:45;;;;;;;;;;;;;;;;;;10293395;28;19933;-74
2021/09/20 15:24:48;;;;;;;;;;;;;;;;;;10291980;28;19927;-78
2021/09/20 15:29:51;;;;;;;;;;;;;;;;;;10291443;28;19930;-73
2021/09/20 15:34:53;;;;;;;;;;;;;;;;;;10301349;28;19926;-72
2021/09/20 15:39:56;;;;;;;;;;;;;;;;;;10301766;28;19930;-79
2021/09/20 15:44:59;;;;;;;;;;;;;;;;;;10321635;28;19937;-70
2021/09/20 15:50:02;;;;;;;;;;;;;;;;;;10308904;28;19926;-75
2021/09/20 15:55:04;;;;;;;;;;;;;;;;;;10330118;28;19932;-71
2021/09/20 16:00:07;;;;;;;;;;;;;;;;;;10329566;28;19933;-73
2021/09/20 16:05:10;;;;;;;;;;;;;;;;;;10329355;28;19937;-72
2021/09/20 16:10:12;;;;;;;;;;;;;;;;;;10313936;28;19942;-71
2021/09/20 16:15:15;;;;;;;;;;;;;;;;;;10338684;28;19932;-78
2021/09/20 16:20:17;;;;;;;;;;;;;;;;;;10335079;28;19930;-74
2021/09/20 16:25:20;;;;;;;;;;;;;;;;;;10296729;28;19934;-73
2021/09/20 16:30:22;;;;;;;;;;;;;;;;;;10331120;28;20300;-75
2021/09/20 16:35:26;;;;;;;;;;;;;;;;;;10332003;28;19980;-68
2021/09/20 16:40:29;;;;;;;;;;;;;;;;;;10313840;28;19929;-69
2021/09/20 16:45:32;;;;;;;;;;;;;;;;;;10330856;28;20465;-69
2021/09/20 16:50:35;;;;;;;;;;;;;;;;;;10325394;28;19945;-75
2021/09/20 16:55:40;;;;;;;;;;;;;;;;;;10302401;28;20350;-72
2021/09/20 17:00:43;;;;;;;;;;;;;;;;;;10293912;28;20437;-74
2021/09/20 17:05:45;;;;;;;;;;;;;;;;;;10293307;28;19934;-70
2021/09/20 17:10:48;;;;;;;;;;;;;;;;;;10311428;28;19930;-75
2021/09/20 17:15:50;;;;;;;;;;;;;;;;;;10290211;28;19930;-74
2021/09/20 17:20:53;;;;;;;;;;;;;;;;;;10304960;28;19926;-71
2021/09/20 17:25:56;;;;;;;;;;;;;;;;;;10302869;28;19953;-72
2021/09/20 17:30:59;;;;;;;;;;;;;;;;;;10290015;28;19981;-72
2021/09/20 17:36:01;;;;;;;;;;;;;;;;;;10288323;28;19930;-75
2021/09/20 17:41:05;;;;;;;;;;;;;;;;;;10290545;28;19926;-76
2021/09/20 17:46:07;;;;;;;;;;;;;;;;;;10291601;28;19930;-71
2021/09/20 17:51:10;;;;;;;;;;;;;;;;;;10289200;28;20341;-71
2021/09/20 17:56:14;;;;;;;;;;;;;;;;;;10286938;28;19936;-72
2021/09/20 18:01:19;;;;;;;;;;;;;;;;;;10289293;28;19980;-76
2021/09/20 18:06:21;;;;;;;;;;;;;;;;;;10330260;28;19926;-75
2021/09/20 18:11:24;;;;;;;;;;;;;;;;;;10333144;28;19933;-70
2021/09/20 18:16:26;;;;;;;;;;;;;;;;;;10332255;28;19926;-71
2021/09/20 18:21:29;;;;;;;;;;;;;;;;;;10330796;28;20192;-76
2021/09/20 18:26:33;;;;;;;;;;;;;;;;;;10333217;28;19926;-71
2021/09/20 18:31:40;;;;;;;;;;;;;;;;;;10331977;28;20308;-76
2021/09/20 18:36:45;;;;;;;;;;;;;;;;;;10312278;28;19930;-75
2021/09/20 18:41:52;;;;;;;;;;;;;;;;;;10329647;28;19926;-70
2021/09/20 18:46:56;;;;;;;;;;;;;;;;;;10332703;28;20020;-75
2021/09/20 18:52:00;;;;;;;;;;;;;;;;;;10331620;28;20013;-70
2021/09/20 18:57:06;;;;;;;;;;;;;;;;;;10331118;28;19930;-70
2021/09/20 19:02:11;;;;;;;;;;;;;;;;;;10331917;28;19926;-76
2021/09/20 19:07:17;;;;;;;;;;;;;;;;;;10323988;28;19969;-76
2021/09/20 19:12:21;;;;;;;;;;;;;;;;;;10296920;28;19930;-72
2021/09/20 19:17:24;;;;;;;;;;;;;;;;;;10328776;28;19929;-75
2021/09/20 19:22:27;;;;;;;;;;;;;;;;;;10327190;28;20017;-71
2021/09/20 19:27:35;;;;;;;;;;;;;;;;;;10327900;28;19936;-72
2021/09/20 19:32:41;;;;;;;;;;;;;;;;;;10326223;28;20332;-71
2021/09/20 19:37:45;;;;;;;;;;;;;;;;;;10325664;28;19937;-74
2021/09/20 19:42:53;;;;;;;;;;;;;;;;;;10328401;28;19972;-73
2021/09/20 19:47:58;;;;;;;;;;;;;;;;;;10337176;28;19977;-79
2021/09/20 19:53:02;;;;;;;;;;;;;;;;;;10337273;28;20320;-77
2021/09/20 19:58:07;;;;;;;;;;;;;;;;;;10339955;28;19948;-77
2021/09/20 20:03:36;;;;;;;;;;;;;;;;;;10339878;28;19930;-74
2021/09/20 20:08:44;;;;;;;;;;;;;;;;;;10340408;28;19930;-73
2021/09/20 20:13:49;;;;;;;;;;;;;;;;;;10340255;28;20024;-76
2021/09/20 20:18:58;;;;;;;;;;;;;;;;;;10340495;28;19936;-75
2021/09/20 20:24:01;;;;;;;;;;;;;;;;;;10339080;28;20674;-76
2021/09/20 20:29:06;;;;;;;;;;;;;;;;;;10339350;28;19996;-75
2021/09/20 20:34:12;;;;;;;;;;;;;;;;;;10341057;28;19926;-75
2021/09/20 20:39:15;;;;;;;;;;;;;;;;;;10344962;23;19961;-75
2021/09/20 20:44:19;;;;;;;;;;;;;;;;;;10339039;28;19930;-76
2021/09/20 20:49:22;;;;;;;;;;;;;;;;;;10338242;28;19926;-75
2021/09/20 20:54:25;;;;;;;;;;;;;;;;;;10334229;28;20496;-74
2021/09/20 20:59:33;;;;;;;;;;;;;;;;;;10333748;28;20021;-74
2021/09/20 21:04:37;;;;;;;;;;;;;;;;;;10331958;28;19937;-74
2021/09/20 21:09:49;;;;;;;;;;;;;;;;;;10332463;28;20389;-76
2021/09/20 21:14:53;;;;;;;;;;;;;;;;;;10332445;28;19969;-77
2021/09/20 21:19:57;;;;;;;;;;;;;;;;;;10331879;28;19959;-76
2021/09/20 21:25:05;;;;;;;;;;;;;;;;;;10332037;28;19926;-76
2021/09/20 21:30:07;;;;;;;;;;;;;;;;;;10331094;28;19932;-77
2021/09/20 21:35:19;;;;;;;;;;;;;;;;;;10331933;28;19930;-78
2021/09/20 21:40:21;;;;;;;;;;;;;;;;;;10330567;28;19930;-78
2021/09/20 21:45:25;;;;;;;;;;;;;;;;;;10331325;28;20300;-78
2021/09/20 21:50:29;;;;;;;;;;;;;;;;;;10336912;28;19929;-78
2021/09/20 21:55:32;;;;;;;;;;;;;;;;;;10337243;28;19926;-74
2021/09/20 22:00:36;;;;;;;;;;;;;;;;;;10337742;28;19965;-76
2021/09/20 22:05:40;;;;;;;;;;;;;;;;;;10337270;28;20429;-74
2021/09/20 22:10:43;;;;;;;;;;;;;;;;;;10334714;28;20028;-75
2021/09/20 22:15:49;;;;;;;;;;;;;;;;;;10336860;28;19961;-78
2021/09/20 22:20:52;;;;;;;;;;;;;;;;;;10336226;28;19926;-78
2021/09/20 22:25:55;;;;;;;;;;;;;;;;;;10335559;28;19926;-78
2021/09/20 22:30:58;;;;;;;;;;;;;;;;;;10334346;28;19941;-74
2021/09/20 22:36:02;;;;;;;;;;;;;;;;;;10335975;28;19932;-78
2021/09/20 22:41:07;;;;;;;;;;;;;;;;;;10335302;28;19925;-74
2021/09/20 22:58:31;;;;;;;;;;;;;;;;;;10335043;28;20416;-75
2021/09/20 23:03:33;;;;;;;;;;;;;;;;;;10334951;28;19969;-75
2021/09/20 23:08:36;;;;;;;;;;;;;;;;;;10348881;28;19956;-75
2021/09/20 23:13:39;;;;;;;;;;;;;;;;;;10334224;28;19930;-74
2021/09/20 23:18:42;;;;;;;;;;;;;;;;;;10332492;28;19930;-74
2021/09/20 23:23:44;;;;;;;;;;;;;;;;;;10333103;28;19926;-78
2021/09/20 23:28:49;;;;;;;;;;;;;;;;;;10348632;28;20016;-77
2021/09/20 23:33:52;;;;;;;;;;;;;;;;;;10333580;28;20340;-75
2021/09/20 23:39:02;;;;;;;;;;;;;;;;;;10348492;28;20021;-78
2021/09/20 23:44:05;;;;;;;;;;;;;;;;;;10332833;28;20417;-74
2021/09/20 23:49:10;;;;;;;;;;;;;;;;;;10287009;28;19934;-77
2021/09/20 23:54:14;;;;;;;;;;;;;;;;;;10291338;28;19976;-75
2021/09/20 23:59:17;;;;;;;;;;;;;;;;;;10307765;28;19926;-74
